Time;durP1;ratioP1;P1;durP2;ratioP2;P2;SDS_P1;SDS_P2;PMS_P1;PMS_P2;Temp;Humidity;BMP_temperature;BMP_pressure;BME280_temperature;BME280_humidity;BME280_pressure;Samples;Min_cycle;Max_cycle;Signal;HPM_P1;HPM_P2
2021/07/01 00:02:03;;;;;;;7.18;2.50;;;;;;;;;;6172299;23;20204;-91
2021/07/01 00:05:12;;;;;;;5.00;2.25;;;;;;;;;;6176355;23;20242;-92
2021/07/01 00:08:18;;;;;;;3.78;2.08;;;;;;;;;;6174681;23;20172;-92
2021/07/01 00:11:23;;;;;;;5.97;2.40;;;;;;;;;;6172766;23;20219;-92
2021/07/01 00:14:30;;;;;;;3.25;2.30;;;;;;;;;;6172262;23;20247;-91
2021/07/01 00:17:36;;;;;;;3.33;2.40;;;;;;;;;;6172111;23;20152;-91
2021/07/01 00:20:41;;;;;;;4.10;2.80;;;;;;;;;;6173709;23;20172;-91
2021/07/01 00:23:46;;;;;;;5.40;2.60;;;;;;;;;;6172922;23;20217;-90
2021/07/01 00:26:52;;;;;;;5.18;2.72;;;;;;;;;;6173370;23;20172;-91
2021/07/01 00:29:59;;;;;;;6.78;2.88;;;;;;;;;;6173127;23;20164;-91
2021/07/01 00:33:04;;;;;;;5.35;2.75;;;;;;;;;;6172614;23;20160;-92
2021/07/01 00:36:12;;;;;;;5.63;2.40;;;;;;;;;;6171373;23;20216;-91
2021/07/01 00:39:17;;;;;;;3.85;2.63;;;;;;;;;;6170285;23;20213;-91
2021/07/01 00:42:22;;;;;;;3.15;2.58;;;;;;;;;;6171075;23;20192;-91
2021/07/01 00:45:29;;;;;;;4.00;3.00;;;;;;;;;;6171868;23;20176;-92
2021/07/01 00:48:34;;;;;;;4.28;2.60;;;;;;;;;;6170335;23;20171;-91
2021/07/01 00:51:39;;;;;;;2.60;2.38;;;;;;;;;;6171063;23;20161;-92
2021/07/01 00:54:44;;;;;;;4.32;2.72;;;;;;;;;;6176034;23;20187;-91
2021/07/01 00:57:50;;;;;;;3.45;2.22;;;;;;;;;;6184234;23;20213;-91
2021/07/01 01:01:02;;;;;;;3.95;2.42;;;;;;;;;;6184449;23;20171;-90
2021/07/01 01:04:08;;;;;;;3.42;2.50;;;;;;;;;;6186403;23;20207;-91
2021/07/01 01:07:15;;;;;;;6.18;2.22;;;;;;;;;;6184489;23;20303;-91
2021/07/01 01:10:21;;;;;;;4.47;2.20;;;;;;;;;;6202879;22;20247;-91
2021/07/01 01:13:35;;;;;;;4.28;2.22;;;;;;;;;;6184599;23;20168;-91
2021/07/01 01:17:04;;;;;;;6.88;2.15;;;;;;;;;;6183021;23;20172;-91
2021/07/01 01:20:11;;;;;;;3.35;1.50;;;;;;;;;;6184249;23;20168;-91
2021/07/01 01:23:22;;;;;;;5.88;1.95;;;;;;;;;;6184983;23;20219;-90
2021/07/01 01:26:28;;;;;;;5.30;2.40;;;;;;;;;;6185316;22;20167;-91
2021/07/01 01:29:33;;;;;;;4.35;1.50;;;;;;;;;;6184167;23;20168;-91
2021/07/01 01:32:39;;;;;;;3.55;1.50;;;;;;;;;;6183175;22;20254;-92
2021/07/01 01:35:45;;;;;;;5.40;1.77;;;;;;;;;;6182953;22;20183;-91
2021/07/01 01:38:51;;;;;;;5.07;2.20;;;;;;;;;;6183342;23;20151;-92
2021/07/01 01:42:16;;;;;;;3.47;1.90;;;;;;;;;;6202753;23;20520;-91
2021/07/01 01:45:22;;;;;;;4.80;1.90;;;;;;;;;;6184569;23;20608;-91
2021/07/01 01:48:27;;;;;;;7.60;2.00;;;;;;;;;;6183604;23;20168;-91
2021/07/01 01:51:32;;;;;;;3.33;1.48;;;;;;;;;;6183486;23;20235;-91
2021/07/01 01:54:41;;;;;;;2.63;1.63;;;;;;;;;;6183642;22;20211;-92
2021/07/01 01:57:51;;;;;;;5.80;1.70;;;;;;;;;;6183317;22;20167;-93
2021/07/01 02:00:56;;;;;;;5.63;1.48;;;;;;;;;;6200706;22;20163;-92
2021/07/01 02:04:01;;;;;;;4.55;1.65;;;;;;;;;;6181685;23;20191;-92
2021/07/01 02:07:16;;;;;;;2.45;1.50;;;;;;;;;;6182566;23;20192;-92
2021/07/01 02:10:41;;;;;;;5.57;1.23;;;;;;;;;;6199406;23;20175;-93
2021/07/01 02:13:51;;;;;;;5.03;1.48;;;;;;;;;;6185115;23;20171;-93
2021/07/01 02:17:16;;;;;;;2.55;1.38;;;;;;;;;;6186438;23;20565;-92
2021/07/01 02:20:25;;;;;;;2.03;1.30;;;;;;;;;;6182795;23;20180;-91
2021/07/01 02:23:31;;;;;;;2.92;1.52;;;;;;;;;;6182146;22;20204;-92
2021/07/01 02:26:39;;;;;;;2.63;1.55;;;;;;;;;;6182875;23;20258;-92
2021/07/01 02:29:44;;;;;;;2.55;1.45;;;;;;;;;;6181849;23;20627;-91
2021/07/01 02:32:55;;;;;;;4.22;1.42;;;;;;;;;;6182228;22;20176;-90
2021/07/01 02:36:01;;;;;;;4.13;1.20;;;;;;;;;;6182181;23;20172;-89
2021/07/01 02:39:27;;;;;;;4.15;1.60;;;;;;;;;;6199671;23;20184;-91
2021/07/01 02:42:34;;;;;;;6.40;1.58;;;;;;;;;;6182224;23;20191;-90
2021/07/01 02:45:40;;;;;;;2.50;1.50;;;;;;;;;;6182320;23;20167;-90
2021/07/01 02:48:52;;;;;;;4.78;1.70;;;;;;;;;;6182158;23;20167;-90
2021/07/01 02:51:58;;;;;;;3.45;1.42;;;;;;;;;;6182398;23;20308;-90
2021/07/01 02:55:03;;;;;;;2.78;1.58;;;;;;;;;;6182142;23;20231;-90
2021/07/01 02:58:10;;;;;;;2.58;1.20;;;;;;;;;;6181875;23;20164;-91
2021/07/01 03:01:36;;;;;;;3.15;1.60;;;;;;;;;;6203188;23;20238;-89
2021/07/01 03:04:59;;;;;;;3.28;1.30;;;;;;;;;;6184098;23;20243;-91
2021/07/01 03:08:06;;;;;;;5.22;1.30;;;;;;;;;;6184180;23;20168;-91
2021/07/01 03:11:17;;;;;;;1.98;1.35;;;;;;;;;;6186692;23;20176;-90
2021/07/01 03:14:24;;;;;;;2.70;1.00;;;;;;;;;;6184013;23;20156;-90
2021/07/01 03:17:29;;;;;;;2.50;1.10;;;;;;;;;;6185757;23;20200;-90
2021/07/01 03:20:35;;;;;;;1.52;0.85;;;;;;;;;;6184136;22;20254;-91
2021/07/01 03:24:01;;;;;;;2.97;0.98;;;;;;;;;;6201913;22;20219;-92
2021/07/01 03:27:06;;;;;;;5.47;0.80;;;;;;;;;;6184124;23;20168;-89
2021/07/01 03:30:14;;;;;;;3.58;0.80;;;;;;;;;;6183983;23;20669;-89
2021/07/01 03:33:22;;;;;;;0.85;0.75;;;;;;;;;;6184611;22;20244;-92
2021/07/01 03:36:27;;;;;;;1.35;0.70;;;;;;;;;;6182863;22;20484;-92
2021/07/01 03:39:51;;;;;;;2.58;0.80;;;;;;;;;;6202464;23;20176;-92
2021/07/01 03:43:04;;;;;;;1.17;0.75;;;;;;;;;;6183600;23;20192;-93
2021/07/01 03:46:15;;;;;;;1.77;0.73;;;;;;;;;;6183852;22;20231;-92
2021/07/01 03:49:22;;;;;;;6.03;0.77;;;;;;;;;;6184174;22;20164;-91
2021/07/01 03:52:27;;;;;;;1.25;0.65;;;;;;;;;;6202960;23;20196;-92
2021/07/01 03:55:36;;;;;;;2.35;0.90;;;;;;;;;;6184299;22;20269;-93
2021/07/01 03:58:41;;;;;;;2.65;0.77;;;;;;;;;;6183366;23;20159;-92
2021/07/01 04:02:07;;;;;;;4.03;1.83;;;;;;;;;;6202907;23;20189;-92
2021/07/01 04:05:12;;;;;;;0.75;0.73;;;;;;;;;;6184963;23;20224;-91
2021/07/01 04:08:19;;;;;;;1.40;0.75;;;;;;;;;;6184284;23;20219;-93
2021/07/01 04:11:29;;;;;;;0.80;0.70;;;;;;;;;;6184227;23;20640;-92
2021/07/01 04:14:35;;;;;;;1.90;0.73;;;;;;;;;;6183629;23;20233;-90
2021/07/01 04:18:01;;;;;;;2.45;0.80;;;;;;;;;;6202489;22;20168;-91
2021/07/01 04:21:27;;;;;;;2.47;0.70;;;;;;;;;;6202393;23;20168;-92
2021/07/01 04:24:51;;;;;;;1.73;0.80;;;;;;;;;;6204539;23;20292;-92
2021/07/01 04:28:09;;;;;;;1.95;0.70;;;;;;;;;;6184250;23;20156;-90
2021/07/01 04:31:14;;;;;;;3.72;0.93;;;;;;;;;;6184985;23;20215;-92
2021/07/01 04:34:26;;;;;;;2.58;0.90;;;;;;;;;;6185262;23;20167;-91
2021/07/01 04:37:32;;;;;;;1.83;0.80;;;;;;;;;;6184440;22;20163;-91
2021/07/01 04:40:37;;;;;;;0.70;0.70;;;;;;;;;;6185358;23;20176;-91
2021/07/01 04:43:42;;;;;;;0.82;0.70;;;;;;;;;;6185865;23;20211;-91
2021/07/01 04:46:47;;;;;;;1.42;0.85;;;;;;;;;;6186625;23;20167;-90
2021/07/01 04:49:56;;;;;;;0.70;0.60;;;;;;;;;;6184466;23;20242;-91
2021/07/01 04:53:20;;;;;;;3.38;0.80;;;;;;;;;;6201719;23;20308;-90
2021/07/01 04:57:03;;;;;;;3.00;0.80;;;;;;;;;;6112435;23;20198;-92
2021/07/01 05:00:12;;;;;;;1.98;0.80;;;;;;;;;;6111789;23;20166;-90
2021/07/01 05:03:58;;;;;;;1.00;0.90;;;;;;;;;;6141836;23;20180;-91
2021/07/01 05:07:05;;;;;;;2.45;0.90;;;;;;;;;;6124711;23;20288;-91
2021/07/01 05:10:12;;;;;;;1.23;0.93;;;;;;;;;;6183770;23;20167;-91
2021/07/01 05:13:31;;;;;;;2.28;0.95;;;;;;;;;;6184779;22;20237;-89
2021/07/01 05:16:37;;;;;;;1.55;0.80;;;;;;;;;;6183505;23;20172;-90
2021/07/01 05:19:46;;;;;;;6.03;0.95;;;;;;;;;;6184085;23;20164;-90
2021/07/01 05:22:56;;;;;;;1.52;0.80;;;;;;;;;;6182493;23;20671;-91
2021/07/01 05:26:20;;;;;;;2.45;0.82;;;;;;;;;;6200065;22;20187;-91
2021/07/01 05:29:45;;;;;;;0.95;0.77;;;;;;;;;;6199087;22;20167;-92
2021/07/01 05:33:10;;;;;;;5.25;1.30;;;;;;;;;;6200312;23;20180;-92
2021/07/01 05:36:22;;;;;;;3.20;1.00;;;;;;;;;;6184353;22;20187;-92
2021/07/01 05:39:32;;;;;;;1.92;0.90;;;;;;;;;;6183177;23;20239;-89
2021/07/01 05:42:40;;;;;;;1.85;1.00;;;;;;;;;;6185303;23;20184;-90
2021/07/01 05:45:45;;;;;;;1.75;1.00;;;;;;;;;;6182058;23;20562;-90
2021/07/01 05:48:50;;;;;;;1.27;0.60;;;;;;;;;;6183516;22;20187;-91
2021/07/01 05:51:56;;;;;;;5.45;1.02;;;;;;;;;;6182455;23;20167;-91
2021/07/01 05:55:03;;;;;;;1.75;1.00;;;;;;;;;;6184211;23;20194;-92
2021/07/01 05:58:08;;;;;;;4.45;0.77;;;;;;;;;;6183546;23;20288;-92
2021/07/01 06:01:14;;;;;;;1.00;0.80;;;;;;;;;;6184089;23;20196;-91
2021/07/01 06:04:20;;;;;;;2.88;0.80;;;;;;;;;;6183380;23;20182;-91
2021/07/01 06:07:48;;;;;;;1.23;0.70;;;;;;;;;;6201960;23;20197;-89
2021/07/01 06:10:58;;;;;;;3.35;0.90;;;;;;;;;;6183299;23;20188;-90
2021/07/01 06:14:05;;;;;;;2.72;0.80;;;;;;;;;;6182328;23;20180;-90
2021/07/01 06:17:11;;;;;;;2.17;0.80;;;;;;;;;;6185121;23;20235;-90
2021/07/01 06:20:17;;;;;;;3.22;1.27;;;;;;;;;;6182423;23;20176;-90
2021/07/01 06:23:22;;;;;;;1.73;0.80;;;;;;;;;;6182489;23;20350;-91
2021/07/01 06:26:30;;;;;;;5.03;1.00;;;;;;;;;;6182847;23;20167;-91
2021/07/01 06:29:36;;;;;;;2.03;1.00;;;;;;;;;;6184700;23;20276;-89
2021/07/01 06:32:44;;;;;;;1.75;1.10;;;;;;;;;;6182606;22;20172;-89
2021/07/01 06:35:51;;;;;;;3.58;1.05;;;;;;;;;;6188781;22;20192;-91
2021/07/01 06:39:03;;;;;;;5.25;0.90;;;;;;;;;;6188556;23;20219;-89
2021/07/01 06:42:29;;;;;;;1.85;0.80;;;;;;;;;;6205497;22;20168;-90
2021/07/01 06:46:10;;;;;;;2.33;1.10;;;;;;;;;;6118965;23;20608;-89
2021/07/01 06:49:52;;;;;;;2.45;0.80;;;;;;;;;;6116703;23;20191;-90
2021/07/01 06:53:16;;;;;;;2.95;1.02;;;;;;;;;;6204765;23;20172;-92
2021/07/01 06:56:43;;;;;;;2.65;1.00;;;;;;;;;;6185914;23;20270;-91
2021/07/01 06:59:50;;;;;;;3.55;0.90;;;;;;;;;;6203826;22;20179;-91
2021/07/01 07:02:55;;;;;;;2.38;1.35;;;;;;;;;;6184687;23;20179;-90
2021/07/01 07:06:02;;;;;;;3.33;0.75;;;;;;;;;;6185526;23;20616;-89
2021/07/01 07:09:09;;;;;;;2.22;1.00;;;;;;;;;;6183624;23;20180;-91
2021/07/01 07:12:14;;;;;;;2.33;0.82;;;;;;;;;;6184015;23;20168;-90
2021/07/01 07:15:25;;;;;;;1.70;1.05;;;;;;;;;;6185286;23;20241;-89
2021/07/01 07:18:31;;;;;;;1.10;1.00;;;;;;;;;;6184832;23;20630;-88
2021/07/01 07:21:38;;;;;;;6.30;1.25;;;;;;;;;;6187418;23;20176;-91
2021/07/01 07:24:46;;;;;;;6.60;1.50;;;;;;;;;;6187494;22;20444;-91
2021/07/01 07:27:54;;;;;;;2.60;1.10;;;;;;;;;;6185665;23;20192;-89
2021/07/01 07:31:02;;;;;;;1.00;0.90;;;;;;;;;;6185009;23;20237;-89
2021/07/01 07:34:08;;;;;;;2.20;1.40;;;;;;;;;;6188116;23;20172;-91
2021/07/01 07:37:13;;;;;;;4.20;1.30;;;;;;;;;;6189337;23;20227;-90
2021/07/01 07:40:19;;;;;;;2.90;1.10;;;;;;;;;;6189414;23;20184;-90
2021/07/01 07:43:25;;;;;;;2.30;1.08;;;;;;;;;;6188713;23;20156;-91
2021/07/01 07:46:32;;;;;;;3.60;1.40;;;;;;;;;;6188723;23;20217;-89
2021/07/01 07:49:37;;;;;;;2.55;1.10;;;;;;;;;;6189770;23;20194;-91
2021/07/01 07:52:45;;;;;;;3.63;1.00;;;;;;;;;;6189537;22;20151;-89
2021/07/01 07:55:54;;;;;;;2.80;1.10;;;;;;;;;;6187538;23;20179;-91
2021/07/01 07:59:02;;;;;;;2.08;1.40;;;;;;;;;;6189036;23;20217;-90
2021/07/01 08:02:09;;;;;;;2.38;1.40;;;;;;;;;;6187216;23;20163;-90
2021/07/01 08:05:15;;;;;;;2.17;1.20;;;;;;;;;;6187878;23;20203;-89
2021/07/01 08:08:26;;;;;;;3.35;1.38;;;;;;;;;;6186643;23;20164;-90
2021/07/01 08:11:33;;;;;;;1.80;1.10;;;;;;;;;;6189307;23;20199;-91
2021/07/01 08:14:42;;;;;;;4.43;1.30;;;;;;;;;;6191246;23;20159;-90
2021/07/01 08:17:52;;;;;;;1.75;1.00;;;;;;;;;;6190515;23;20200;-89
2021/07/01 08:20:58;;;;;;;1.92;1.17;;;;;;;;;;6189596;22;20223;-90
2021/07/01 08:24:05;;;;;;;5.22;2.13;;;;;;;;;;6186627;23;20196;-90
2021/07/01 08:27:10;;;;;;;2.53;1.50;;;;;;;;;;6186395;22;20215;-91
2021/07/01 08:30:17;;;;;;;2.38;1.30;;;;;;;;;;6188283;23;20180;-91
2021/07/01 08:33:25;;;;;;;3.72;1.92;;;;;;;;;;6188114;23;20266;-89
2021/07/01 08:36:29;;;;;;;3.28;1.60;;;;;;;;;;6186754;22;20248;-91
2021/07/01 08:39:35;;;;;;;2.10;1.48;;;;;;;;;;6186666;23;20163;-90
2021/07/01 08:42:40;;;;;;;4.05;1.50;;;;;;;;;;6185444;23;20283;-92
2021/07/01 08:45:52;;;;;;;2.47;1.20;;;;;;;;;;6185104;23;20180;-91
2021/07/01 08:49:09;;;;;;;3.95;1.88;;;;;;;;;;6183214;22;20320;-90
2021/07/01 08:52:15;;;;;;;3.83;1.48;;;;;;;;;;6183288;23;20591;-90
2021/07/01 08:55:21;;;;;;;3.95;1.40;;;;;;;;;;6181842;23;20248;-91
2021/07/01 08:58:27;;;;;;;2.08;1.35;;;;;;;;;;6182821;23;20196;-91
2021/07/01 09:01:32;;;;;;;3.78;1.65;;;;;;;;;;6185478;23;20163;-92
2021/07/01 09:04:48;;;;;;;2.53;1.60;;;;;;;;;;6185782;22;20192;-93
2021/07/01 09:07:54;;;;;;;5.22;1.60;;;;;;;;;;6183340;23;20229;-90
2021/07/01 09:11:07;;;;;;;3.30;1.65;;;;;;;;;;6183985;23;20228;-91
2021/07/01 09:14:13;;;;;;;3.50;1.55;;;;;;;;;;6183765;23;20183;-91
2021/07/01 09:17:20;;;;;;;3.08;1.40;;;;;;;;;;6183318;23;20172;-92
2021/07/01 09:20:33;;;;;;;3.10;1.35;;;;;;;;;;6183053;23;20184;-91
2021/07/01 09:23:40;;;;;;;2.83;1.70;;;;;;;;;;6182212;23;20228;-91
2021/07/01 09:26:48;;;;;;;3.60;1.40;;;;;;;;;;6186918;23;20179;-90
2021/07/01 09:29:54;;;;;;;5.10;1.70;;;;;;;;;;6184563;23;20266;-88
2021/07/01 09:33:01;;;;;;;3.42;1.70;;;;;;;;;;6184153;22;20212;-91
2021/07/01 09:36:07;;;;;;;2.80;1.60;;;;;;;;;;6184695;23;20550;-88
2021/07/01 09:39:12;;;;;;;4.88;1.85;;;;;;;;;;6182505;23;20235;-89
2021/07/01 09:42:17;;;;;;;2.90;1.60;;;;;;;;;;6183644;23;20162;-89
2021/07/01 09:45:24;;;;;;;3.55;1.80;;;;;;;;;;6185569;23;20223;-88
2021/07/01 09:48:32;;;;;;;1.70;1.40;;;;;;;;;;6183748;23;20175;-91
2021/07/01 09:51:42;;;;;;;1.85;1.20;;;;;;;;;;6182976;23;20694;-90
2021/07/01 09:54:49;;;;;;;2.45;1.60;;;;;;;;;;6183755;23;20274;-90
2021/07/01 09:57:54;;;;;;;1.65;1.27;;;;;;;;;;6182986;23;20245;-88
2021/07/01 10:01:00;;;;;;;1.98;1.27;;;;;;;;;;6184253;23;20303;-90
2021/07/01 10:04:08;;;;;;;2.83;1.50;;;;;;;;;;6183163;23;20171;-90
2021/07/01 10:07:15;;;;;;;3.28;1.48;;;;;;;;;;6182132;23;20175;-90
2021/07/01 10:10:22;;;;;;;2.10;1.63;;;;;;;;;;6182627;23;20180;-88
2021/07/01 10:13:28;;;;;;;2.35;1.58;;;;;;;;;;6182033;23;20166;-90
2021/07/01 10:16:34;;;;;;;2.20;1.40;;;;;;;;;;6181126;23;20167;-88
2021/07/01 10:19:39;;;;;;;2.00;1.30;;;;;;;;;;6182646;23;20167;-88
2021/07/01 10:22:46;;;;;;;2.55;1.42;;;;;;;;;;6180766;23;20175;-88
2021/07/01 10:25:51;;;;;;;1.63;1.30;;;;;;;;;;6199677;22;20220;-88
2021/07/01 10:28:58;;;;;;;2.03;1.30;;;;;;;;;;6182366;23;20167;-89
2021/07/01 10:32:07;;;;;;;1.58;1.40;;;;;;;;;;6183531;23;20171;-87
2021/07/01 10:35:20;;;;;;;2.60;1.70;;;;;;;;;;6184887;23;20225;-89
2021/07/01 10:38:26;;;;;;;3.25;2.10;;;;;;;;;;6183982;23;20167;-89
2021/07/01 10:41:32;;;;;;;4.22;1.88;;;;;;;;;;6183860;23;20209;-89
2021/07/01 10:44:38;;;;;;;2.85;1.40;;;;;;;;;;6181500;23;20179;-90
2021/07/01 10:47:43;;;;;;;4.75;1.45;;;;;;;;;;6181344;23;20219;-89
2021/07/01 10:50:49;;;;;;;1.70;1.17;;;;;;;;;;6181245;23;20171;-90
2021/07/01 10:54:10;;;;;;;1.60;1.00;;;;;;;;;;6180835;23;20228;-90
2021/07/01 10:57:15;;;;;;;1.45;1.10;;;;;;;;;;6180540;23;20265;-89
2021/07/01 11:00:37;;;;;;;1.50;1.00;;;;;;;;;;6183882;23;20175;-90
2021/07/01 11:03:41;;;;;;;0.90;0.70;;;;;;;;;;6182178;23;20172;-91
2021/07/01 11:06:48;;;;;;;1.92;1.17;;;;;;;;;;6203509;22;20195;-91
2021/07/01 11:09:57;;;;;;;1.20;0.77;;;;;;;;;;6184156;22;20168;-91
2021/07/01 11:13:06;;;;;;;2.10;1.23;;;;;;;;;;6183306;22;20179;-90
2021/07/01 11:16:13;;;;;;;4.32;1.00;;;;;;;;;;6183249;23;20243;-90
2021/07/01 11:19:21;;;;;;;1.98;0.85;;;;;;;;;;6182309;23;20183;-90
2021/07/01 11:22:41;;;;;;;3.53;1.20;;;;;;;;;;6183937;22;20611;-90
2021/07/01 11:25:47;;;;;;;4.78;0.90;;;;;;;;;;6183465;23;20671;-90
2021/07/01 11:28:53;;;;;;;2.45;0.70;;;;;;;;;;6185729;23;20180;-90
2021/07/01 11:31:58;;;;;;;2.03;1.00;;;;;;;;;;6184440;23;20172;-90
2021/07/01 11:35:03;;;;;;;2.08;1.00;;;;;;;;;;6184140;22;20179;-91
2021/07/01 11:38:23;;;;;;;2.75;1.08;;;;;;;;;;6185585;22;20209;-91
2021/07/01 11:41:33;;;;;;;1.48;1.10;;;;;;;;;;6185684;23;20168;-88
2021/07/01 11:44:40;;;;;;;3.58;1.10;;;;;;;;;;6185968;23;20192;-90
2021/07/01 11:47:46;;;;;;;1.30;0.88;;;;;;;;;;6183675;23;20168;-90
2021/07/01 11:50:52;;;;;;;1.42;1.02;;;;;;;;;;6185255;23;20160;-89
2021/07/01 11:53:58;;;;;;;1.30;0.90;;;;;;;;;;6184908;23;20164;-90
2021/07/01 11:57:06;;;;;;;1.33;0.88;;;;;;;;;;6184300;23;20179;-89
2021/07/01 12:00:11;;;;;;;1.23;0.90;;;;;;;;;;6182253;22;20164;-89
2021/07/01 12:03:21;;;;;;;0.93;0.77;;;;;;;;;;6184564;23;20172;-90
2021/07/01 12:06:45;;;;;;;1.13;0.80;;;;;;;;;;6190379;22;20220;-91
2021/07/01 12:09:51;;;;;;;2.50;1.20;;;;;;;;;;6199321;23;20163;-89
2021/07/01 12:12:59;;;;;;;2.08;0.93;;;;;;;;;;6182336;23;20176;-90
2021/07/01 12:16:11;;;;;;;1.20;0.90;;;;;;;;;;6201405;23;20172;-89
2021/07/01 12:19:17;;;;;;;5.07;1.50;;;;;;;;;;6185333;23;20168;-89
2021/07/01 12:22:38;;;;;;;1.00;0.88;;;;;;;;;;6186711;23;20168;-91
2021/07/01 12:25:46;;;;;;;1.73;1.10;;;;;;;;;;6184545;23;20200;-90
2021/07/01 12:28:53;;;;;;;3.25;1.25;;;;;;;;;;6184500;23;20243;-91
2021/07/01 12:32:19;;;;;;;1.27;1.05;;;;;;;;;;6184367;23;20164;-89
2021/07/01 12:35:41;;;;;;;1.48;1.10;;;;;;;;;;6185555;23;20172;-90
2021/07/01 12:39:08;;;;;;;1.83;1.05;;;;;;;;;;6185864;23;20168;-89
2021/07/01 12:42:25;;;;;;;1.20;0.80;;;;;;;;;;6186164;23;20175;-90
2021/07/01 12:45:33;;;;;;;3.03;1.10;;;;;;;;;;6185039;23;20192;-90
2021/07/01 12:48:39;;;;;;;1.40;1.02;;;;;;;;;;6184290;22;20163;-89
2021/07/01 12:51:45;;;;;;;2.33;1.00;;;;;;;;;;6184491;23;20164;-90
2021/07/01 12:54:59;;;;;;;1.33;1.00;;;;;;;;;;6184347;23;20256;-90
2021/07/01 12:58:05;;;;;;;1.63;1.05;;;;;;;;;;6184224;23;20584;-90
2021/07/01 13:01:13;;;;;;;1.85;1.20;;;;;;;;;;6188625;22;20160;-90
2021/07/01 13:04:22;;;;;;;2.38;1.13;;;;;;;;;;6184977;23;20172;-88
2021/07/01 13:07:29;;;;;;;7.13;1.20;;;;;;;;;;6185592;22;20175;-90
2021/07/01 13:10:36;;;;;;;0.98;0.70;;;;;;;;;;6185384;23;20172;-90
2021/07/01 13:13:41;;;;;;;2.45;1.10;;;;;;;;;;6184556;23;20172;-89
2021/07/01 13:17:06;;;;;;;1.25;0.80;;;;;;;;;;6183974;23;20188;-90
2021/07/01 13:20:12;;;;;;;2.22;0.90;;;;;;;;;;6186748;22;20583;-89
2021/07/01 13:23:19;;;;;;;1.00;0.75;;;;;;;;;;6187519;23;20167;-89
2021/07/01 13:26:32;;;;;;;1.30;0.80;;;;;;;;;;6185503;23;20195;-90
2021/07/01 13:29:38;;;;;;;1.60;0.80;;;;;;;;;;6183736;23;20171;-89
2021/07/01 13:32:46;;;;;;;1.33;0.60;;;;;;;;;;6184192;23;20155;-90
2021/07/01 13:35:51;;;;;;;1.20;0.90;;;;;;;;;;6185225;22;20179;-89
2021/07/01 13:38:57;;;;;;;1.73;0.80;;;;;;;;;;6184709;23;20248;-90
2021/07/01 13:42:18;;;;;;;1.67;0.90;;;;;;;;;;6184581;23;20670;-91
2021/07/01 13:45:26;;;;;;;0.70;0.60;;;;;;;;;;6184065;23;20194;-88
2021/07/01 13:48:32;;;;;;;2.50;0.77;;;;;;;;;;6183826;22;20177;-90
2021/07/01 13:54:58;;;;;;;1.15;0.60;;;;;;;;;;6203701;22;20183;-91
2021/07/01 13:58:03;;;;;;;1.52;0.70;;;;;;;;;;6185316;22;20228;-91
2021/07/01 14:01:09;;;;;;;2.42;0.70;;;;;;;;;;6183902;22;20167;-91
2021/07/01 14:04:16;;;;;;;2.10;0.70;;;;;;;;;;6184790;23;20176;-91
2021/07/01 14:07:29;;;;;;;1.23;0.60;;;;;;;;;;6183782;23;20216;-91
2021/07/01 14:10:35;;;;;;;2.08;0.80;;;;;;;;;;6182836;23;20252;-91
2021/07/01 14:13:42;;;;;;;4.95;0.75;;;;;;;;;;6184819;23;20163;-90
2021/07/01 14:16:47;;;;;;;1.33;0.82;;;;;;;;;;6182969;22;20195;-90
2021/07/01 14:19:54;;;;;;;1.10;0.80;;;;;;;;;;6182950;22;20295;-88
2021/07/01 14:22:59;;;;;;;2.50;1.48;;;;;;;;;;6181730;22;20163;-90
2021/07/01 14:26:13;;;;;;;3.30;1.40;;;;;;;;;;6183513;23;20188;-89
2021/07/01 14:29:19;;;;;;;3.28;1.10;;;;;;;;;;6182791;23;20175;-90
2021/07/01 14:32:33;;;;;;;2.58;1.05;;;;;;;;;;6183062;23;20212;-90
2021/07/01 14:35:40;;;;;;;1.40;0.88;;;;;;;;;;6185206;22;20156;-91
2021/07/01 14:38:46;;;;;;;2.70;0.70;;;;;;;;;;6185143;22;20172;-90
2021/07/01 14:42:02;;;;;;;2.97;0.70;;;;;;;;;;6183744;23;20189;-91
2021/07/01 14:45:07;;;;;;;1.42;0.60;;;;;;;;;;6184900;23;20168;-89
2021/07/01 14:48:13;;;;;;;1.92;0.60;;;;;;;;;;6183943;23;20190;-89
2021/07/01 14:51:22;;;;;;;2.25;0.80;;;;;;;;;;6184030;23;20156;-88
2021/07/01 14:54:28;;;;;;;1.50;0.60;;;;;;;;;;6183663;23;20623;-90
2021/07/01 14:57:36;;;;;;;1.83;0.82;;;;;;;;;;6184887;23;20171;-90
2021/07/01 15:00:41;;;;;;;1.05;0.80;;;;;;;;;;6186356;23;20237;-89
2021/07/01 15:03:47;;;;;;;1.40;0.90;;;;;;;;;;6186635;23;20199;-91
2021/07/01 15:06:59;;;;;;;3.28;1.17;;;;;;;;;;6186864;23;20195;-91
2021/07/01 15:10:08;;;;;;;0.90;0.75;;;;;;;;;;6186050;23;20164;-91
2021/07/01 15:13:15;;;;;;;1.10;0.80;;;;;;;;;;6186207;23;20164;-90
2021/07/01 15:16:22;;;;;;;2.42;1.02;;;;;;;;;;6183634;23;20172;-90
2021/07/01 15:22:51;;;;;;;2.20;0.70;;;;;;;;;;6187222;22;20191;-90
2021/07/01 15:25:59;;;;;;;6.10;0.82;;;;;;;;;;6186233;23;20192;-91
2021/07/01 15:29:04;;;;;;;0.88;0.80;;;;;;;;;;6184813;23;20207;-89
2021/07/01 15:32:09;;;;;;;0.70;0.70;;;;;;;;;;6183136;23;20171;-89
2021/07/01 15:35:15;;;;;;;1.88;0.80;;;;;;;;;;6183913;23;20172;-88
2021/07/01 15:38:22;;;;;;;3.60;0.98;;;;;;;;;;6185890;23;20236;-88
2021/07/01 15:41:28;;;;;;;1.08;0.80;;;;;;;;;;6184170;23;20167;-89
2021/07/01 15:44:33;;;;;;;1.20;0.82;;;;;;;;;;6183904;22;20176;-89
2021/07/01 15:47:39;;;;;;;0.77;0.70;;;;;;;;;;6183319;23;20191;-88
2021/07/01 15:50:45;;;;;;;1.58;0.93;;;;;;;;;;6182674;23;20172;-88
2021/07/01 15:53:51;;;;;;;2.40;1.30;;;;;;;;;;6183543;23;20203;-89
2021/07/01 15:56:57;;;;;;;1.45;1.00;;;;;;;;;;6153015;23;20184;-88
2021/07/01 16:00:02;;;;;;;2.00;1.30;;;;;;;;;;6155186;23;20271;-89
2021/07/01 16:03:11;;;;;;;1.92;1.00;;;;;;;;;;6174014;23;20206;-89
2021/07/01 16:06:16;;;;;;;1.58;1.10;;;;;;;;;;6152769;23;20184;-89
2021/07/01 16:09:23;;;;;;;2.33;1.33;;;;;;;;;;6154545;23;20172;-88
2021/07/01 16:12:30;;;;;;;3.60;1.73;;;;;;;;;;6153507;23;20172;-88
2021/07/01 16:15:35;;;;;;;2.10;1.15;;;;;;;;;;6151697;23;20172;-89
2021/07/01 16:18:42;;;;;;;1.67;0.90;;;;;;;;;;6152022;23;20217;-89
2021/07/01 16:21:50;;;;;;;3.28;1.27;;;;;;;;;;6153336;23;20196;-87
2021/07/01 16:24:59;;;;;;;10.50;4.90;;;;;;;;;;6153393;23;20169;-89
2021/07/01 16:28:05;;;;;;;1.98;1.20;;;;;;;;;;6151918;23;20168;-88
2021/07/01 16:31:11;;;;;;;1.50;1.00;;;;;;;;;;6152855;23;20228;-87
2021/07/01 16:34:17;;;;;;;2.72;0.98;;;;;;;;;;6156233;23;20226;-89
2021/07/01 16:37:22;;;;;;;2.97;1.30;;;;;;;;;;6154629;23;20220;-89
2021/07/01 16:40:29;;;;;;;1.73;1.20;;;;;;;;;;6152961;23;20168;-89
2021/07/01 16:43:34;;;;;;;3.17;1.33;;;;;;;;;;6154678;23;20233;-87
2021/07/01 16:46:42;;;;;;;3.72;1.20;;;;;;;;;;6153956;23;20199;-90
2021/07/01 16:49:48;;;;;;;1.58;1.15;;;;;;;;;;6154956;23;20204;-89
2021/07/01 16:52:58;;;;;;;2.78;1.40;;;;;;;;;;6138717;23;20178;-89
2021/07/01 16:56:06;;;;;;;3.05;1.60;;;;;;;;;;6175702;23;20659;-87
2021/07/01 16:59:12;;;;;;;4.97;1.67;;;;;;;;;;6181912;23;20238;-90
2021/07/01 17:02:19;;;;;;;3.25;1.67;;;;;;;;;;6182286;22;20164;-89
2021/07/01 17:05:25;;;;;;;2.47;1.83;;;;;;;;;;6181875;23;20239;-90
2021/07/01 17:08:31;;;;;;;4.45;1.40;;;;;;;;;;6184349;23;20166;-90
2021/07/01 17:11:38;;;;;;;2.60;1.60;;;;;;;;;;6183072;23;20627;-89
2021/07/01 17:14:44;;;;;;;3.03;2.08;;;;;;;;;;6182821;23;20188;-89
2021/07/01 17:17:49;;;;;;;5.07;2.25;;;;;;;;;;6182470;23;20175;-90
2021/07/01 17:20:55;;;;;;;2.58;1.55;;;;;;;;;;6183557;23;20163;-89
2021/07/01 17:24:00;;;;;;;4.70;1.90;;;;;;;;;;6181776;23;20264;-87
2021/07/01 17:27:15;;;;;;;1.92;1.23;;;;;;;;;;6183368;23;20199;-89
2021/07/01 17:30:21;;;;;;;4.35;1.40;;;;;;;;;;6181197;23;20255;-88
2021/07/01 17:33:26;;;;;;;6.22;1.90;;;;;;;;;;6182168;23;20206;-90
2021/07/01 17:36:34;;;;;;;5.22;1.63;;;;;;;;;;6182086;23;20163;-89
2021/07/01 17:39:40;;;;;;;5.55;1.42;;;;;;;;;;6183699;23;20212;-89
2021/07/01 17:42:49;;;;;;;4.63;1.52;;;;;;;;;;6182805;23;20175;-89
2021/07/01 17:45:55;;;;;;;3.67;1.60;;;;;;;;;;6182956;23;20271;-88
2021/07/01 17:49:00;;;;;;;7.78;2.42;;;;;;;;;;6180727;23;20176;-89
2021/07/01 17:52:07;;;;;;;5.45;1.40;;;;;;;;;;6181544;23;20176;-90
2021/07/01 17:55:13;;;;;;;2.40;1.60;;;;;;;;;;6183468;23;20235;-89
2021/07/01 17:58:20;;;;;;;5.05;2.08;;;;;;;;;;6181091;23;20172;-89
2021/07/01 18:01:25;;;;;;;3.15;1.70;;;;;;;;;;6181558;23;20172;-89
2021/07/01 18:04:33;;;;;;;3.38;1.85;;;;;;;;;;6182313;22;20175;-89
2021/07/01 18:07:38;;;;;;;5.72;1.85;;;;;;;;;;6183391;23;20206;-89
2021/07/01 18:10:43;;;;;;;4.40;2.17;;;;;;;;;;6182252;22;20303;-89
2021/07/01 18:13:49;;;;;;;3.83;2.10;;;;;;;;;;6184590;23;20155;-88
2021/07/01 18:16:54;;;;;;;3.97;2.50;;;;;;;;;;6183944;23;20253;-90
2021/07/01 18:20:00;;;;;;;5.07;1.77;;;;;;;;;;6184862;23;20612;-89
2021/07/01 18:23:07;;;;;;;3.42;2.00;;;;;;;;;;6184155;23;20223;-89
2021/07/01 18:26:12;;;;;;;5.20;1.60;;;;;;;;;;6182792;23;20172;-90
2021/07/01 18:29:19;;;;;;;5.40;2.65;;;;;;;;;;6185729;22;20248;-88
2021/07/01 18:32:26;;;;;;;3.25;2.08;;;;;;;;;;6187553;23;20175;-88
2021/07/01 18:35:32;;;;;;;3.88;2.20;;;;;;;;;;6186594;23;20167;-88
2021/07/01 18:38:38;;;;;;;5.93;2.55;;;;;;;;;;6184737;23;20229;-89
2021/07/01 18:41:45;;;;;;;6.47;2.67;;;;;;;;;;6184521;23;20172;-89
2021/07/01 18:44:54;;;;;;;5.68;2.20;;;;;;;;;;6183406;23;20175;-90
2021/07/01 18:47:59;;;;;;;3.90;1.90;;;;;;;;;;6183995;23;20706;-89
2021/07/01 18:51:05;;;;;;;2.67;1.75;;;;;;;;;;6185210;23;20185;-89
2021/07/01 18:54:10;;;;;;;3.53;1.70;;;;;;;;;;6186673;23;20172;-90
2021/07/01 18:57:15;;;;;;;2.92;1.90;;;;;;;;;;6185568;23;20172;-89
2021/07/01 19:00:22;;;;;;;3.92;2.13;;;;;;;;;;6184721;23;20288;-88